createdAt,value
2022-08-17T00:00:34.981Z,5.30
2022-08-17T00:03:09.978Z,4.70
2022-08-17T00:05:41.990Z,4.80
2022-08-17T00:08:11.703Z,5.40
2022-08-17T00:10:39.884Z,5.60
2022-08-17T00:13:09.899Z,4.70
2022-08-17T00:15:38.069Z,6.07
2022-08-17T00:19:02.015Z,4.80
2022-08-17T00:20:54.814Z,6.60
2022-08-17T00:23:24.542Z,4.90
2022-08-17T00:25:53.379Z,5.20
2022-08-17T00:28:21.890Z,4.93
2022-08-17T00:30:53.516Z,4.60
2022-08-17T00:33:25.695Z,5.03
2022-08-17T00:35:54.647Z,4.63
2022-08-17T00:38:24.441Z,5.40
2022-08-17T00:40:56.001Z,5.30
2022-08-17T00:43:32.187Z,6.20
2022-08-17T00:46:02.017Z,4.70
2022-08-17T00:48:30.925Z,5.23
2022-08-17T00:51:06.980Z,5.63
2022-08-17T00:53:41.914Z,5.20
2022-08-17T00:56:16.502Z,5.10
2022-08-17T00:58:44.492Z,4.93
2022-08-17T01:01:21.283Z,4.80
2022-08-17T01:03:50.784Z,6.70
2022-08-17T01:06:19.161Z,5.37
2022-08-17T01:08:48.879Z,5.77
2022-08-17T01:11:26.041Z,6.13
2022-08-17T01:13:54.255Z,5.63
2022-08-17T01:16:24.810Z,6.17
2022-08-17T01:18:55.536Z,6.00
2022-08-17T01:21:30.784Z,6.23
2022-08-17T01:24:00.874Z,5.00
2022-08-17T01:26:29.737Z,5.47
2022-08-17T01:28:57.872Z,7.17
2022-08-17T01:31:30.214Z,8.10
2022-08-17T01:33:59.524Z,6.53
2022-08-17T01:36:30.502Z,6.40
2022-08-17T01:39:00.183Z,5.67
2022-08-17T01:41:28.557Z,6.10
2022-08-17T01:43:59.030Z,4.53
2022-08-17T01:46:28.961Z,5.20
2022-08-17T01:48:57.952Z,5.00
2022-08-17T01:51:27.596Z,6.37
2022-08-17T01:53:58.252Z,6.97
2022-08-17T01:56:30.480Z,7.10
2022-08-17T01:58:58.460Z,7.43
2022-08-17T02:01:29.538Z,7.33
2022-08-17T02:04:01.136Z,6.80
2022-08-17T02:06:31.358Z,6.10
2022-08-17T02:09:16.800Z,6.50
2022-08-17T02:11:46.985Z,5.83
2022-08-17T02:14:15.459Z,6.43
2022-08-17T02:16:43.499Z,7.37
2022-08-17T02:19:13.934Z,6.37
2022-08-17T02:21:43.000Z,6.63
2022-08-17T02:24:13.781Z,6.53
2022-08-17T02:26:42.047Z,6.20
2022-08-17T02:29:12.075Z,6.07
2022-08-17T02:31:40.025Z,6.87
2022-08-17T02:34:08.248Z,6.30
2022-08-17T02:36:37.041Z,6.87
2022-08-17T02:39:06.945Z,6.80
2022-08-17T02:41:35.525Z,6.37
2022-08-17T02:44:03.840Z,5.80
2022-08-17T02:46:33.230Z,6.10
2022-08-17T02:49:01.535Z,6.70
2022-08-17T02:51:29.821Z,7.50
2022-08-17T02:54:03.875Z,6.30
2022-08-17T02:56:45.735Z,6.30
2022-08-17T02:59:13.786Z,5.50
2022-08-17T03:01:43.238Z,5.30
2022-08-17T03:04:11.283Z,5.57
2022-08-17T03:06:39.293Z,8.60
2022-08-17T03:09:07.283Z,7.77
2022-08-17T03:11:35.491Z,8.67
2022-08-17T03:14:03.502Z,7.10
2022-08-17T03:16:31.470Z,7.20
2022-08-17T03:19:00.789Z,6.37
2022-08-17T03:21:28.922Z,6.03
2022-08-17T03:23:56.894Z,6.20
2022-08-17T03:26:24.871Z,5.17
2022-08-17T03:28:57.676Z,7.00
2022-08-17T03:31:25.683Z,8.03
2022-08-17T03:33:53.690Z,5.63
2022-08-17T03:36:23.059Z,7.10
2022-08-17T03:38:51.148Z,6.03
2022-08-17T03:41:19.175Z,5.60
2022-08-17T03:43:47.146Z,6.67
2022-08-17T03:46:34.742Z,8.17
2022-08-17T03:49:21.130Z,7.23
2022-08-17T03:52:07.824Z,7.30
2022-08-17T03:54:53.063Z,6.90
2022-08-17T03:57:21.093Z,6.73
2022-08-17T03:59:49.499Z,6.60
2022-08-17T04:02:19.607Z,5.17
2022-08-17T04:04:50.757Z,5.57
2022-08-17T04:07:21.165Z,5.63
2022-08-17T04:09:49.275Z,6.37
2022-08-17T04:12:18.109Z,7.27
2022-08-17T04:14:52.793Z,6.60
2022-08-17T04:17:23.375Z,6.60
2022-08-17T04:19:51.398Z,6.67
2022-08-17T04:22:30.773Z,7.40
2022-08-17T04:25:02.957Z,7.20
2022-08-17T04:27:30.970Z,7.40
2022-08-17T04:29:59.587Z,12.00
2022-08-17T04:33:03.782Z,11.43
2022-08-17T04:35:19.602Z,12.30
2022-08-17T04:37:48.945Z,14.17
2022-08-17T04:40:35.293Z,24.60
2022-08-17T04:43:05.442Z,12.43
2022-08-17T04:45:33.485Z,8.23
2022-08-17T04:48:02.148Z,6.37
2022-08-17T04:50:30.145Z,7.40
2022-08-17T04:52:59.772Z,19.27
2022-08-17T04:55:28.047Z,14.40
2022-08-17T04:57:56.009Z,21.93
2022-08-17T05:00:25.879Z,15.97
2022-08-17T05:02:55.843Z,14.37
2022-08-17T05:05:29.124Z,9.80
2022-08-17T05:08:02.244Z,7.03
2022-08-17T05:10:33.071Z,4.83
2022-08-17T05:13:01.657Z,4.67
2022-08-17T05:15:33.135Z,4.37
2022-08-17T05:18:03.959Z,5.10
2022-08-17T05:20:32.830Z,3.93
2022-08-17T05:23:07.119Z,4.67
2022-08-17T05:25:37.528Z,5.00
2022-08-17T05:28:06.631Z,5.20
2022-08-17T05:30:36.343Z,4.70
2022-08-17T05:33:06.483Z,5.47
2022-08-17T05:35:37.452Z,5.53
2022-08-17T05:38:08.068Z,5.27
2022-08-17T05:40:36.360Z,5.40
2022-08-17T05:43:09.320Z,5.27
2022-08-17T05:45:55.575Z,5.10
2022-08-17T05:48:39.690Z,4.47
2022-08-17T05:51:31.570Z,4.17
2022-08-17T05:54:11.174Z,4.43
2022-08-17T05:56:53.105Z,4.17
2022-08-17T05:59:27.518Z,4.77
2022-08-17T06:01:59.664Z,3.70
2022-08-17T06:04:32.369Z,4.20
2022-08-17T06:07:08.154Z,3.50
2022-08-17T06:09:41.971Z,3.20
2022-08-17T06:12:37.181Z,3.63
2022-08-17T06:15:15.302Z,5.80
2022-08-17T06:17:43.670Z,3.60
2022-08-17T06:20:13.801Z,3.70
2022-08-17T06:22:45.767Z,3.20
2022-08-17T06:25:18.027Z,3.10
2022-08-17T06:27:53.383Z,3.73
2022-08-17T06:30:24.957Z,2.90
2022-08-17T06:32:55.179Z,3.20
2022-08-17T06:35:32.034Z,3.20
2022-08-17T06:38:07.346Z,3.90
2022-08-17T06:40:49.343Z,3.10
2022-08-17T06:43:26.898Z,3.07
2022-08-17T06:45:58.886Z,2.93
2022-08-17T06:48:33.287Z,3.53
2022-08-17T06:51:05.928Z,3.20
2022-08-17T06:53:40.101Z,2.80
2022-08-17T06:56:10.865Z,3.50
2022-08-17T06:58:40.560Z,3.17
2022-08-17T07:01:11.377Z,3.10
2022-08-17T07:03:42.449Z,2.87
2022-08-17T07:06:14.780Z,3.57
2022-08-17T07:08:51.180Z,3.47
2022-08-17T07:11:24.825Z,3.57
2022-08-17T07:14:01.379Z,3.03
2022-08-17T07:16:34.364Z,3.50
2022-08-17T07:19:02.545Z,3.40
2022-08-17T07:21:40.794Z,3.27
2022-08-17T07:24:29.725Z,3.67
2022-08-17T07:27:10.454Z,3.50
2022-08-17T07:29:41.815Z,3.03
2022-08-17T07:32:11.718Z,3.30
2022-08-17T07:35:12.981Z,3.47
2022-08-17T07:37:45.304Z,3.00
2022-08-17T07:40:23.709Z,2.90
2022-08-17T07:43:25.394Z,2.80
2022-08-17T07:46:33.409Z,3.17
2022-08-17T07:49:23.583Z,2.60
2022-08-17T07:52:48.394Z,2.80
2022-08-17T07:54:48.536Z,2.33
2022-08-17T07:57:31.913Z,2.50
2022-08-17T08:00:19.525Z,2.10
2022-08-17T08:03:23.690Z,2.30
2022-08-17T08:06:00.219Z,2.43
2022-08-17T08:08:40.753Z,2.30
2022-08-17T08:11:10.594Z,2.20
2022-08-17T08:13:45.109Z,2.70
2022-08-17T08:16:20.989Z,2.63
2022-08-17T08:18:55.619Z,2.50
2022-08-17T08:21:37.029Z,2.67
2022-08-17T08:24:22.638Z,2.40
2022-08-17T08:26:56.581Z,2.50
2022-08-17T08:29:29.362Z,2.40
2022-08-17T08:32:04.855Z,2.77
2022-08-17T08:35:01.490Z,3.00
2022-08-17T08:37:44.802Z,2.77
2022-08-17T08:40:28.009Z,3.50
2022-08-17T08:43:03.499Z,2.90
2022-08-17T08:45:39.150Z,3.40
2022-08-17T08:48:52.923Z,3.43
2022-08-17T08:51:08.648Z,3.73
2022-08-17T08:53:47.801Z,3.33
2022-08-17T08:56:23.487Z,2.70
2022-08-17T08:58:59.226Z,3.63
2022-08-17T09:01:32.538Z,3.87
2022-08-17T09:04:24.776Z,3.40
2022-08-17T09:07:02.096Z,3.37
2022-08-17T09:09:42.228Z,3.30
2022-08-17T09:12:16.840Z,3.30
2022-08-17T09:14:59.548Z,3.47
2022-08-17T09:17:35.573Z,3.27
2022-08-17T09:20:28.082Z,2.80
2022-08-17T09:22:59.796Z,2.80
2022-08-17T09:25:31.127Z,2.70
2022-08-17T09:28:03.717Z,3.10
2022-08-17T09:30:38.520Z,3.40
2022-08-17T09:33:09.319Z,2.70
2022-08-17T09:35:43.774Z,3.30
2022-08-17T09:38:22.615Z,3.30
2022-08-17T09:40:54.555Z,2.90
2022-08-17T09:43:31.491Z,2.67
2022-08-17T09:46:02.946Z,3.00
2022-08-17T09:48:34.226Z,2.73
2022-08-17T09:51:07.396Z,2.77
2022-08-17T09:53:37.560Z,2.70
2022-08-17T09:56:19.849Z,2.60
2022-08-17T09:59:03.384Z,2.67
2022-08-17T10:01:36.887Z,2.70
2022-08-17T10:04:14.190Z,2.50
2022-08-17T10:06:51.255Z,2.50
2022-08-17T10:09:37.363Z,2.50
2022-08-17T10:12:21.496Z,2.20
2022-08-17T10:15:08.010Z,2.30
2022-08-17T10:17:44.326Z,2.13
2022-08-17T10:20:15.514Z,2.47
2022-08-17T10:23:05.448Z,2.63
2022-08-17T10:25:55.426Z,2.90
2022-08-17T10:28:29.830Z,2.63
2022-08-17T10:33:57.749Z,2.27
2022-08-17T10:36:30.050Z,2.70
2022-08-17T10:39:08.717Z,2.73
2022-08-17T10:41:42.720Z,2.40
2022-08-17T10:44:38.077Z,2.20
2022-08-17T10:47:08.825Z,2.80
2022-08-17T10:49:38.700Z,2.50
2022-08-17T10:52:48.705Z,2.57
2022-08-17T10:55:20.433Z,2.73
2022-08-17T10:57:50.771Z,2.70
2022-08-17T11:01:12.704Z,2.77
2022-08-17T11:03:53.432Z,3.20
2022-08-17T11:06:26.848Z,3.07
2022-08-17T11:09:07.665Z,2.70
2022-08-17T11:12:11.735Z,3.00
2022-08-17T11:14:57.945Z,2.90
2022-08-17T11:17:41.512Z,2.77
2022-08-17T11:20:22.439Z,2.70
2022-08-17T11:23:37.443Z,2.77
2022-08-17T11:26:23.115Z,2.57
2022-08-17T11:28:56.293Z,2.60
2022-08-17T11:31:39.117Z,2.97
2022-08-17T11:34:14.493Z,2.40
2022-08-17T11:37:13.374Z,2.80
2022-08-17T11:40:05.624Z,2.60
2022-08-17T11:42:47.285Z,2.70
2022-08-17T11:45:33.121Z,2.53
2022-08-17T11:48:28.425Z,2.33
2022-08-17T11:51:19.042Z,2.30
2022-08-17T11:54:31.614Z,2.70
2022-08-17T11:57:25.333Z,2.20
2022-08-17T12:00:11.245Z,2.50
2022-08-17T12:02:48.866Z,3.10
2022-08-17T12:05:35.600Z,2.50
2022-08-17T12:08:22.447Z,3.20
2022-08-17T12:11:00.501Z,2.50
2022-08-17T12:13:34.679Z,2.23
2022-08-17T12:16:16.853Z,2.67
2022-08-17T12:19:08.633Z,2.40
2022-08-17T12:21:43.458Z,2.60
2022-08-17T12:24:21.593Z,2.70
2022-08-17T12:26:53.453Z,2.90
2022-08-17T12:29:35.876Z,2.60
2022-08-17T12:32:08.444Z,2.87
2022-08-17T12:34:40.848Z,2.27
2022-08-17T12:37:15.789Z,2.90
2022-08-17T12:39:52.361Z,2.50
2022-08-17T12:42:26.925Z,2.70
2022-08-17T12:44:54.922Z,2.80
2022-08-17T12:47:23.331Z,2.50
2022-08-17T12:49:54.515Z,3.43
2022-08-17T12:52:25.158Z,2.87
2022-08-17T12:54:56.083Z,2.83
2022-08-17T12:57:26.032Z,2.73
2022-08-17T12:59:59.488Z,2.40
2022-08-17T13:02:38.477Z,2.97
2022-08-17T13:05:10.229Z,2.30
2022-08-17T13:07:43.584Z,2.70
2022-08-17T13:10:22.130Z,2.83
2022-08-17T13:12:50.940Z,2.70
2022-08-17T13:15:22.702Z,3.03
2022-08-17T13:17:58.726Z,3.93
2022-08-17T13:20:28.155Z,3.53
2022-08-17T13:22:58.243Z,2.77
2022-08-17T13:25:26.954Z,2.37
2022-08-17T13:27:56.091Z,2.40
2022-08-17T13:30:28.140Z,2.70
2022-08-17T13:32:57.810Z,2.70
2022-08-17T13:35:41.409Z,2.70
2022-08-17T13:38:13.847Z,2.93
2022-08-17T13:40:46.173Z,2.53
2022-08-17T13:43:44.586Z,3.10
2022-08-17T13:46:19.704Z,2.53
2022-08-17T13:48:58.801Z,2.40
2022-08-17T13:51:31.360Z,2.40
2022-08-17T13:54:02.563Z,2.90
2022-08-17T13:56:47.220Z,2.50
2022-08-17T13:59:17.937Z,2.70
2022-08-17T14:02:07.127Z,2.50
2022-08-17T14:04:35.568Z,2.47
2022-08-17T14:07:25.022Z,2.20
2022-08-17T14:09:55.905Z,2.53
2022-08-17T14:12:26.265Z,3.37
2022-08-17T14:14:56.487Z,2.43
2022-08-17T14:17:24.592Z,2.50
2022-08-17T14:19:53.239Z,2.43
2022-08-17T14:22:26.996Z,2.67
2022-08-17T14:24:55.105Z,2.80
2022-08-17T14:27:24.416Z,2.00
2022-08-17T14:29:53.293Z,2.97
2022-08-17T14:32:23.703Z,2.83
2022-08-17T14:34:52.821Z,2.90
2022-08-17T14:37:25.422Z,2.10
2022-08-17T14:39:55.827Z,2.47
2022-08-17T14:42:25.935Z,2.87
2022-08-17T14:44:54.249Z,2.53
2022-08-17T14:47:22.425Z,2.80
2022-08-17T14:49:50.472Z,3.13
2022-08-17T14:52:21.799Z,2.70
2022-08-17T14:54:52.245Z,2.77
2022-08-17T14:57:33.028Z,2.60
2022-08-17T15:00:03.147Z,2.47
2022-08-17T15:02:31.380Z,2.73
2022-08-17T15:05:00.436Z,2.93
2022-08-17T15:07:30.456Z,2.40
2022-08-17T15:10:01.435Z,2.80
2022-08-17T15:12:34.639Z,2.60
2022-08-17T15:15:04.887Z,2.47
2022-08-17T15:17:44.702Z,2.67
2022-08-17T15:20:15.953Z,2.93
2022-08-17T15:22:45.080Z,3.00
2022-08-17T15:25:15.455Z,2.40
2022-08-17T15:27:44.070Z,2.60
2022-08-17T15:30:13.376Z,3.17
2022-08-17T15:32:51.009Z,2.60
2022-08-17T15:35:27.514Z,5.70
2022-08-17T15:37:58.302Z,3.50
2022-08-17T15:40:27.971Z,4.57
2022-08-17T15:42:57.739Z,5.87
2022-08-17T15:45:28.365Z,3.67
2022-08-17T15:47:56.390Z,2.83
2022-08-17T15:50:24.358Z,2.83
2022-08-17T15:52:57.911Z,2.77
2022-08-17T15:55:29.063Z,2.10
2022-08-17T15:57:57.149Z,2.23
2022-08-17T16:00:28.138Z,3.17
2022-08-17T16:03:45.126Z,3.13
2022-08-17T16:05:44.437Z,3.20
2022-08-17T16:08:20.164Z,3.03
2022-08-17T16:10:51.181Z,2.20
2022-08-17T16:13:20.102Z,2.70
2022-08-17T16:15:57.196Z,2.90
2022-08-17T16:18:28.303Z,2.43
2022-08-17T16:20:56.986Z,2.90
2022-08-17T16:23:25.406Z,3.07
2022-08-17T16:25:54.768Z,3.07
2022-08-17T16:28:23.286Z,3.00
2022-08-17T16:31:08.041Z,2.70
2022-08-17T16:33:37.712Z,3.00
2022-08-17T16:36:08.125Z,2.50
2022-08-17T16:38:36.590Z,2.70
2022-08-17T16:41:06.805Z,2.67
2022-08-17T16:43:35.016Z,2.63
2022-08-17T16:46:03.326Z,3.23
2022-08-17T16:48:31.529Z,2.90
2022-08-17T16:51:04.297Z,3.37
2022-08-17T16:53:32.933Z,2.77
2022-08-17T16:56:00.922Z,2.80
2022-08-17T16:58:30.291Z,3.00
2022-08-17T17:00:59.714Z,3.17
2022-08-17T17:03:29.901Z,2.80
2022-08-17T17:06:06.536Z,2.87
2022-08-17T17:08:42.059Z,3.33
2022-08-17T17:11:14.109Z,2.60
2022-08-17T17:13:48.173Z,3.00
2022-08-17T17:16:20.823Z,2.77
2022-08-17T17:19:01.658Z,2.80
2022-08-17T17:21:34.371Z,2.90
2022-08-17T17:24:06.102Z,3.10
2022-08-17T17:26:58.851Z,2.90
2022-08-17T17:29:47.753Z,2.63
2022-08-17T17:32:21.921Z,2.83
2022-08-17T17:34:54.186Z,2.87
2022-08-17T17:37:26.978Z,2.90
2022-08-17T17:39:58.107Z,3.10
2022-08-17T17:42:31.293Z,2.87
2022-08-17T17:45:07.630Z,3.53
2022-08-17T17:47:36.864Z,2.90
2022-08-17T17:50:06.610Z,3.20
2022-08-17T17:52:40.987Z,3.00
2022-08-17T17:55:19.869Z,2.87
2022-08-17T17:57:58.422Z,3.20
2022-08-17T18:00:34.367Z,3.10
2022-08-17T18:03:23.917Z,2.80
2022-08-17T18:06:15.129Z,2.90
2022-08-17T18:08:57.218Z,3.77
2022-08-17T18:11:38.086Z,3.07
2022-08-17T18:14:15.414Z,3.13
2022-08-17T18:16:45.451Z,3.23
2022-08-17T18:19:15.095Z,3.43
2022-08-17T18:21:46.448Z,2.93
2022-08-17T18:24:14.935Z,3.50
2022-08-17T18:26:46.945Z,4.10
2022-08-17T18:29:35.874Z,3.50
2022-08-17T18:32:29.870Z,3.70
2022-08-17T18:34:59.999Z,3.70
2022-08-17T18:37:34.922Z,3.70
2022-08-17T18:40:30.318Z,3.73
2022-08-17T18:43:03.307Z,3.40
2022-08-17T18:45:38.253Z,3.53
2022-08-17T18:48:20.011Z,3.77
2022-08-17T18:50:48.321Z,4.50
2022-08-17T18:53:36.441Z,3.77
2022-08-17T18:56:19.121Z,3.47
2022-08-17T18:58:52.182Z,3.83
2022-08-17T19:01:22.487Z,3.50
2022-08-17T19:04:33.981Z,4.33
2022-08-17T19:07:13.469Z,4.40
2022-08-17T19:09:45.574Z,4.60
2022-08-17T19:12:28.144Z,5.53
2022-08-17T19:14:57.540Z,6.60
2022-08-17T19:17:35.384Z,6.70
2022-08-17T19:20:10.014Z,4.40
2022-08-17T19:22:49.662Z,4.57
2022-08-17T19:25:22.666Z,4.80
2022-08-17T19:27:57.298Z,4.80
2022-08-17T19:30:26.292Z,4.87
2022-08-17T19:32:54.329Z,4.33
2022-08-17T19:35:26.750Z,4.73
2022-08-17T19:38:04.588Z,4.50
2022-08-17T19:40:54.278Z,5.00
2022-08-17T19:43:28.485Z,4.67
2022-08-17T19:46:03.849Z,5.03
2022-08-17T19:48:41.818Z,4.33
2022-08-17T19:51:15.330Z,5.37
2022-08-17T19:54:05.068Z,5.93
2022-08-17T19:56:40.363Z,5.97
2022-08-17T19:59:14.617Z,5.43
2022-08-17T20:01:46.766Z,4.57
2022-08-17T20:04:19.484Z,5.20
2022-08-17T20:06:50.305Z,5.40
2022-08-17T20:09:22.244Z,5.40
2022-08-17T20:11:55.896Z,6.03
2022-08-17T20:14:31.573Z,6.60
2022-08-17T20:17:02.828Z,6.10
2022-08-17T20:19:38.188Z,6.03
2022-08-17T20:22:11.997Z,6.03
2022-08-17T20:24:43.691Z,4.93
2022-08-17T20:27:15.391Z,5.30
2022-08-17T20:30:03.673Z,5.50
2022-08-17T20:32:35.296Z,5.43
2022-08-17T20:35:10.181Z,5.13
2022-08-17T20:37:44.821Z,5.70
2022-08-17T20:40:20.586Z,5.00
2022-08-17T20:42:48.714Z,5.60
2022-08-17T20:45:54.021Z,5.23
2022-08-17T20:48:37.442Z,5.63
2022-08-17T20:51:18.450Z,5.50
2022-08-17T20:54:34.011Z,5.17
2022-08-17T20:57:06.113Z,6.20
2022-08-17T20:59:56.951Z,5.13
2022-08-17T21:02:27.577Z,5.03
2022-08-17T21:05:17.865Z,5.00
2022-08-17T21:07:55.765Z,4.77
2022-08-17T21:10:41.254Z,5.03
2022-08-17T21:13:37.594Z,5.40
2022-08-17T21:16:11.918Z,5.50
2022-08-17T21:18:47.607Z,5.87
2022-08-17T21:21:24.242Z,4.97
2022-08-17T21:24:19.327Z,5.57
2022-08-17T21:26:55.535Z,6.00
2022-08-17T21:29:31.806Z,5.03
2022-08-17T21:32:24.199Z,5.30
2022-08-17T21:35:29.122Z,4.77
2022-08-17T21:38:02.378Z,5.60
2022-08-17T21:40:32.236Z,4.73
2022-08-17T21:43:03.237Z,5.60
2022-08-17T21:45:36.084Z,5.43
2022-08-17T21:48:09.638Z,4.80
2022-08-17T21:50:38.790Z,5.53
2022-08-17T21:53:08.801Z,5.23
2022-08-17T21:55:37.587Z,5.60
2022-08-17T21:58:14.604Z,5.63
2022-08-17T22:00:45.192Z,6.10
2022-08-17T22:03:24.673Z,5.90
2022-08-17T22:05:52.669Z,6.23
2022-08-17T22:08:23.642Z,5.60
2022-08-17T22:10:57.861Z,6.10
2022-08-17T22:13:29.855Z,5.10
2022-08-17T22:16:15.441Z,5.47
2022-08-17T22:18:58.147Z,5.57
2022-08-17T22:21:26.777Z,5.30
2022-08-17T22:24:07.079Z,5.50
2022-08-17T22:27:06.962Z,6.03
2022-08-17T22:29:57.167Z,5.43
2022-08-17T22:32:41.383Z,5.60
2022-08-17T22:35:35.349Z,6.00
2022-08-17T22:38:30.967Z,5.37
2022-08-17T22:41:21.930Z,5.70
2022-08-17T22:43:50.681Z,6.33
2022-08-17T22:46:21.095Z,6.23
2022-08-17T22:48:53.810Z,5.70
2022-08-17T22:51:23.982Z,5.40
2022-08-17T22:54:11.775Z,5.17
2022-08-17T22:56:58.927Z,5.90
2022-08-17T22:59:46.519Z,5.60
2022-08-17T23:02:21.756Z,5.37
2022-08-17T23:04:54.118Z,5.50
2022-08-17T23:07:22.596Z,6.20
2022-08-17T23:09:50.621Z,6.13
2022-08-17T23:12:24.470Z,5.50
2022-08-17T23:14:58.489Z,5.47
2022-08-17T23:17:27.580Z,5.70
2022-08-17T23:19:57.274Z,4.80
2022-08-17T23:22:25.914Z,5.57
2022-08-17T23:24:53.958Z,5.17
2022-08-17T23:27:23.173Z,5.57
2022-08-17T23:29:51.526Z,5.80
2022-08-17T23:32:19.866Z,5.80
2022-08-17T23:34:49.509Z,5.70
2022-08-17T23:37:19.604Z,5.77
2022-08-17T23:39:47.687Z,5.20
2022-08-17T23:42:21.693Z,6.50
2022-08-17T23:44:49.749Z,4.93
2022-08-17T23:47:17.902Z,5.23
2022-08-17T23:49:45.890Z,6.33
2022-08-17T23:52:16.497Z,4.63
2022-08-17T23:54:47.718Z,4.87
2022-08-17T23:57:19.900Z,5.63
